sensor_id;sensor_type;location;lat;lon;timestamp;temperature;humidity
18998;DHT22;9632;51.018;4.284;2023-05-20T00:00:38;15.80;99.90
18998;DHT22;9632;51.018;4.284;2023-05-20T00:03:03;15.80;99.90
18998;DHT22;9632;51.018;4.284;2023-05-20T00:05:29;15.70;99.90
18998;DHT22;9632;51.018;4.284;2023-05-20T00:07:55;15.80;99.90
18998;DHT22;9632;51.018;4.284;2023-05-20T00:10:20;15.80;99.90
18998;DHT22;9632;51.018;4.284;2023-05-20T00:12:46;15.80;99.90
18998;DHT22;9632;51.018;4.284;2023-05-20T00:15:11;15.70;99.90
18998;DHT22;9632;51.018;4.284;2023-05-20T00:17:37;15.70;99.90
18998;DHT22;9632;51.018;4.284;2023-05-20T00:20:04;15.70;99.90
18998;DHT22;9632;51.018;4.284;2023-05-20T00:22:30;15.70;99.90
18998;DHT22;9632;51.018;4.284;2023-05-20T00:24:56;15.70;99.90
18998;DHT22;9632;51.018;4.284;2023-05-20T00:27:22;15.70;99.90
18998;DHT22;9632;51.018;4.284;2023-05-20T00:29:47;15.70;99.90
18998;DHT22;9632;51.018;4.284;2023-05-20T00:32:13;15.70;99.90
18998;DHT22;9632;51.018;4.284;2023-05-20T00:34:39;15.60;99.90
18998;DHT22;9632;51.018;4.284;2023-05-20T00:37:05;15.60;99.90
18998;DHT22;9632;51.018;4.284;2023-05-20T00:39:30;15.50;99.90
18998;DHT22;9632;51.018;4.284;2023-05-20T00:41:56;15.60;99.90
18998;DHT22;9632;51.018;4.284;2023-05-20T00:44:25;15.60;99.90
18998;DHT22;9632;51.018;4.284;2023-05-20T00:46:51;15.50;99.90
18998;DHT22;9632;51.018;4.284;2023-05-20T00:49:17;15.50;99.90
18998;DHT22;9632;51.018;4.284;2023-05-20T00:51:43;15.50;99.90
18998;DHT22;9632;51.018;4.284;2023-05-20T00:54:09;15.50;99.90
18998;DHT22;9632;51.018;4.284;2023-05-20T00:56:35;15.40;99.90
18998;DHT22;9632;51.018;4.284;2023-05-20T00:59:01;15.50;99.90
18998;DHT22;9632;51.018;4.284;2023-05-20T01:01:27;15.50;99.90
18998;DHT22;9632;51.018;4.284;2023-05-20T01:03:52;15.50;99.90
18998;DHT22;9632;51.018;4.284;2023-05-20T01:06:18;15.40;99.90
18998;DHT22;9632;51.018;4.284;2023-05-20T01:08:44;15.40;99.90
18998;DHT22;9632;51.018;4.284;2023-05-20T01:11:33;15.40;99.90
18998;DHT22;9632;51.018;4.284;2023-05-20T01:14:02;15.40;99.90
18998;DHT22;9632;51.018;4.284;2023-05-20T01:16:31;15.30;99.90
18998;DHT22;9632;51.018;4.284;2023-05-20T01:18:58;15.20;99.90
18998;DHT22;9632;51.018;4.284;2023-05-20T01:21:27;15.20;99.90
18998;DHT22;9632;51.018;4.284;2023-05-20T01:23:55;15.10;99.90
18998;DHT22;9632;51.018;4.284;2023-05-20T01:26:20;15.10;99.90
18998;DHT22;9632;51.018;4.284;2023-05-20T01:28:46;15.10;99.90
18998;DHT22;9632;51.018;4.284;2023-05-20T01:31:23;15.10;99.90
18998;DHT22;9632;51.018;4.284;2023-05-20T01:33:54;15.00;99.90
18998;DHT22;9632;51.018;4.284;2023-05-20T01:36:22;14.90;99.90
18998;DHT22;9632;51.018;4.284;2023-05-20T01:38:50;14.90;99.90
18998;DHT22;9632;51.018;4.284;2023-05-20T01:41:16;14.90;99.90
18998;DHT22;9632;51.018;4.284;2023-05-20T01:43:43;14.90;99.90
18998;DHT22;9632;51.018;4.284;2023-05-20T01:46:09;14.80;99.90
18998;DHT22;9632;51.018;4.284;2023-05-20T01:48:35;14.80;99.90
18998;DHT22;9632;51.018;4.284;2023-05-20T01:51:00;14.80;99.90
18998;DHT22;9632;51.018;4.284;2023-05-20T01:53:26;14.80;99.90
18998;DHT22;9632;51.018;4.284;2023-05-20T01:55:52;14.80;99.90
18998;DHT22;9632;51.018;4.284;2023-05-20T01:58:17;14.80;99.90
18998;DHT22;9632;51.018;4.284;2023-05-20T02:00:43;14.80;99.90
18998;DHT22;9632;51.018;4.284;2023-05-20T02:03:09;14.80;99.90
18998;DHT22;9632;51.018;4.284;2023-05-20T02:05:35;14.70;99.90
18998;DHT22;9632;51.018;4.284;2023-05-20T02:08:01;14.80;99.90
18998;DHT22;9632;51.018;4.284;2023-05-20T02:10:26;14.70;99.90
18998;DHT22;9632;51.018;4.284;2023-05-20T02:12:52;14.70;99.90
18998;DHT22;9632;51.018;4.284;2023-05-20T02:15:17;14.60;99.90
18998;DHT22;9632;51.018;4.284;2023-05-20T02:17:43;14.60;99.90
18998;DHT22;9632;51.018;4.284;2023-05-20T02:20:09;14.60;99.90
18998;DHT22;9632;51.018;4.284;2023-05-20T02:22:36;14.50;99.90
18998;DHT22;9632;51.018;4.284;2023-05-20T02:25:02;14.50;99.90
18998;DHT22;9632;51.018;4.284;2023-05-20T02:27:27;14.50;99.90
18998;DHT22;9632;51.018;4.284;2023-05-20T02:29:53;14.60;99.90
18998;DHT22;9632;51.018;4.284;2023-05-20T02:32:19;14.60;99.90
18998;DHT22;9632;51.018;4.284;2023-05-20T02:34:45;14.60;99.90
18998;DHT22;9632;51.018;4.284;2023-05-20T02:37:11;14.60;99.90
18998;DHT22;9632;51.018;4.284;2023-05-20T02:39:37;14.50;99.90
18998;DHT22;9632;51.018;4.284;2023-05-20T02:42:02;14.60;99.90
18998;DHT22;9632;51.018;4.284;2023-05-20T02:44:29;14.50;99.90
18998;DHT22;9632;51.018;4.284;2023-05-20T02:46:54;14.50;99.90
18998;DHT22;9632;51.018;4.284;2023-05-20T02:49:20;14.50;99.90
18998;DHT22;9632;51.018;4.284;2023-05-20T02:51:46;14.40;99.90
18998;DHT22;9632;51.018;4.284;2023-05-20T02:54:11;14.40;99.90
18998;DHT22;9632;51.018;4.284;2023-05-20T02:56:37;14.40;99.90
18998;DHT22;9632;51.018;4.284;2023-05-20T02:59:03;14.40;99.90
18998;DHT22;9632;51.018;4.284;2023-05-20T03:01:29;14.40;99.90
18998;DHT22;9632;51.018;4.284;2023-05-20T03:03:55;14.30;99.90
18998;DHT22;9632;51.018;4.284;2023-05-20T03:06:20;14.30;99.90
18998;DHT22;9632;51.018;4.284;2023-05-20T03:08:46;14.30;99.90
18998;DHT22;9632;51.018;4.284;2023-05-20T03:11:12;14.30;99.90
18998;DHT22;9632;51.018;4.284;2023-05-20T03:13:37;14.20;99.90
18998;DHT22;9632;51.018;4.284;2023-05-20T03:16:03;14.30;99.90
18998;DHT22;9632;51.018;4.284;2023-05-20T03:18:29;14.20;99.90
18998;DHT22;9632;51.018;4.284;2023-05-20T03:20:55;14.20;99.90
18998;DHT22;9632;51.018;4.284;2023-05-20T03:23:20;14.20;99.90
18998;DHT22;9632;51.018;4.284;2023-05-20T03:25:47;14.20;99.90
18998;DHT22;9632;51.018;4.284;2023-05-20T03:28:13;14.20;99.90
18998;DHT22;9632;51.018;4.284;2023-05-20T03:30:38;14.20;99.90
18998;DHT22;9632;51.018;4.284;2023-05-20T03:33:04;14.20;99.90
18998;DHT22;9632;51.018;4.284;2023-05-20T03:35:30;14.10;99.90
18998;DHT22;9632;51.018;4.284;2023-05-20T03:37:55;14.10;99.90
18998;DHT22;9632;51.018;4.284;2023-05-20T03:40:21;14.00;99.90
18998;DHT22;9632;51.018;4.284;2023-05-20T03:42:47;14.00;99.90
18998;DHT22;9632;51.018;4.284;2023-05-20T03:45:14;14.00;99.90
18998;DHT22;9632;51.018;4.284;2023-05-20T03:47:40;13.90;99.90
18998;DHT22;9632;51.018;4.284;2023-05-20T03:50:06;13.90;99.90
18998;DHT22;9632;51.018;4.284;2023-05-20T03:52:32;13.90;99.90
18998;DHT22;9632;51.018;4.284;2023-05-20T03:54:57;13.90;99.90
18998;DHT22;9632;51.018;4.284;2023-05-20T03:57:23;13.90;99.90
18998;DHT22;9632;51.018;4.284;2023-05-20T03:59:49;13.90;99.90
18998;DHT22;9632;51.018;4.284;2023-05-20T04:02:15;13.80;99.90
18998;DHT22;9632;51.018;4.284;2023-05-20T04:04:41;13.90;99.90
18998;DHT22;9632;51.018;4.284;2023-05-20T04:07:09;13.90;99.90
18998;DHT22;9632;51.018;4.284;2023-05-20T04:09:37;13.90;99.90
18998;DHT22;9632;51.018;4.284;2023-05-20T04:12:04;13.90;99.90
18998;DHT22;9632;51.018;4.284;2023-05-20T04:14:30;13.90;99.90
18998;DHT22;9632;51.018;4.284;2023-05-20T04:16:58;13.90;99.90
18998;DHT22;9632;51.018;4.284;2023-05-20T04:19:24;13.90;99.90
18998;DHT22;9632;51.018;4.284;2023-05-20T04:21:52;14.00;99.90
18998;DHT22;9632;51.018;4.284;2023-05-20T04:24:18;14.10;99.90
18998;DHT22;9632;51.018;4.284;2023-05-20T04:26:44;14.10;99.90
18998;DHT22;9632;51.018;4.284;2023-05-20T04:29:09;14.10;99.90
18998;DHT22;9632;51.018;4.284;2023-05-20T04:31:36;14.20;99.90
18998;DHT22;9632;51.018;4.284;2023-05-20T04:34:02;14.20;99.90
18998;DHT22;9632;51.018;4.284;2023-05-20T04:36:29;14.20;99.90
18998;DHT22;9632;51.018;4.284;2023-05-20T04:38:55;14.30;99.90
18998;DHT22;9632;51.018;4.284;2023-05-20T04:41:21;14.20;99.90
18998;DHT22;9632;51.018;4.284;2023-05-20T04:43:47;14.20;99.90
18998;DHT22;9632;51.018;4.284;2023-05-20T04:46:14;14.20;99.90
18998;DHT22;9632;51.018;4.284;2023-05-20T04:48:40;14.20;99.90
18998;DHT22;9632;51.018;4.284;2023-05-20T04:51:06;14.20;99.90
18998;DHT22;9632;51.018;4.284;2023-05-20T04:53:33;14.20;99.90
18998;DHT22;9632;51.018;4.284;2023-05-20T04:56:00;14.10;99.90
18998;DHT22;9632;51.018;4.284;2023-05-20T04:58:26;14.10;99.90
18998;DHT22;9632;51.018;4.284;2023-05-20T05:00:54;14.10;99.90
18998;DHT22;9632;51.018;4.284;2023-05-20T05:03:20;14.10;99.90
18998;DHT22;9632;51.018;4.284;2023-05-20T05:05:46;14.20;99.90
18998;DHT22;9632;51.018;4.284;2023-05-20T05:08:12;14.30;99.90
18998;DHT22;9632;51.018;4.284;2023-05-20T05:10:38;14.40;99.90
18998;DHT22;9632;51.018;4.284;2023-05-20T05:13:03;14.40;99.90
18998;DHT22;9632;51.018;4.284;2023-05-20T05:15:29;14.60;99.90
18998;DHT22;9632;51.018;4.284;2023-05-20T05:17:55;14.70;99.90
18998;DHT22;9632;51.018;4.284;2023-05-20T05:20:21;14.80;99.90
18998;DHT22;9632;51.018;4.284;2023-05-20T05:22:47;15.00;99.90
18998;DHT22;9632;51.018;4.284;2023-05-20T05:25:14;15.10;99.90
18998;DHT22;9632;51.018;4.284;2023-05-20T05:27:40;15.30;99.90
18998;DHT22;9632;51.018;4.284;2023-05-20T05:30:06;15.40;99.90
18998;DHT22;9632;51.018;4.284;2023-05-20T05:32:32;15.40;99.90
18998;DHT22;9632;51.018;4.284;2023-05-20T05:34:58;15.30;99.90
18998;DHT22;9632;51.018;4.284;2023-05-20T05:37:24;15.30;99.90
18998;DHT22;9632;51.018;4.284;2023-05-20T05:39:50;15.30;99.90
18998;DHT22;9632;51.018;4.284;2023-05-20T05:42:15;15.40;99.90
18998;DHT22;9632;51.018;4.284;2023-05-20T05:44:41;15.50;99.90
18998;DHT22;9632;51.018;4.284;2023-05-20T05:47:06;15.70;99.90
18998;DHT22;9632;51.018;4.284;2023-05-20T05:49:32;15.80;99.90
18998;DHT22;9632;51.018;4.284;2023-05-20T05:51:58;16.10;99.90
18998;DHT22;9632;51.018;4.284;2023-05-20T05:54:24;16.10;99.90
18998;DHT22;9632;51.018;4.284;2023-05-20T05:56:53;16.30;99.90
18998;DHT22;9632;51.018;4.284;2023-05-20T05:59:21;16.50;99.90
18998;DHT22;9632;51.018;4.284;2023-05-20T06:01:47;16.70;99.90
18998;DHT22;9632;51.018;4.284;2023-05-20T06:04:13;16.90;99.90
18998;DHT22;9632;51.018;4.284;2023-05-20T06:06:39;17.10;99.90
18998;DHT22;9632;51.018;4.284;2023-05-20T06:09:05;17.20;99.90
18998;DHT22;9632;51.018;4.284;2023-05-20T06:11:31;17.30;99.90
18998;DHT22;9632;51.018;4.284;2023-05-20T06:13:56;17.40;99.90
18998;DHT22;9632;51.018;4.284;2023-05-20T06:16:22;17.50;99.90
18998;DHT22;9632;51.018;4.284;2023-05-20T06:18:48;17.50;99.90
18998;DHT22;9632;51.018;4.284;2023-05-20T06:21:20;17.50;99.90
18998;DHT22;9632;51.018;4.284;2023-05-20T06:23:45;17.60;99.90
18998;DHT22;9632;51.018;4.284;2023-05-20T06:26:11;17.70;99.90
18998;DHT22;9632;51.018;4.284;2023-05-20T06:28:38;17.70;99.90
18998;DHT22;9632;51.018;4.284;2023-05-20T06:31:03;17.80;99.90
18998;DHT22;9632;51.018;4.284;2023-05-20T06:33:29;17.90;99.90
18998;DHT22;9632;51.018;4.284;2023-05-20T06:35:55;18.10;99.90
18998;DHT22;9632;51.018;4.284;2023-05-20T06:38:21;18.20;99.90
18998;DHT22;9632;51.018;4.284;2023-05-20T06:40:48;18.20;99.90
18998;DHT22;9632;51.018;4.284;2023-05-20T06:43:14;18.30;99.90
18998;DHT22;9632;51.018;4.284;2023-05-20T06:45:40;18.30;99.90
18998;DHT22;9632;51.018;4.284;2023-05-20T06:48:06;18.20;99.90
18998;DHT22;9632;51.018;4.284;2023-05-20T06:50:32;18.30;99.90
18998;DHT22;9632;51.018;4.284;2023-05-20T06:52:57;18.40;99.90
18998;DHT22;9632;51.018;4.284;2023-05-20T06:55:23;18.50;99.90
18998;DHT22;9632;51.018;4.284;2023-05-20T06:57:49;18.50;99.90
18998;DHT22;9632;51.018;4.284;2023-05-20T07:00:14;18.60;99.90
18998;DHT22;9632;51.018;4.284;2023-05-20T07:02:41;18.70;99.90
18998;DHT22;9632;51.018;4.284;2023-05-20T07:05:07;18.70;99.90
18998;DHT22;9632;51.018;4.284;2023-05-20T07:07:33;18.80;99.90
18998;DHT22;9632;51.018;4.284;2023-05-20T07:09:59;18.90;99.90
18998;DHT22;9632;51.018;4.284;2023-05-20T07:12:24;19.00;99.90
18998;DHT22;9632;51.018;4.284;2023-05-20T07:14:51;19.10;99.90
18998;DHT22;9632;51.018;4.284;2023-05-20T07:17:16;19.20;99.90
18998;DHT22;9632;51.018;4.284;2023-05-20T07:19:42;19.20;99.90
18998;DHT22;9632;51.018;4.284;2023-05-20T07:22:08;19.20;99.90
18998;DHT22;9632;51.018;4.284;2023-05-20T07:24:34;19.20;99.90
18998;DHT22;9632;51.018;4.284;2023-05-20T07:27:01;19.20;99.90
18998;DHT22;9632;51.018;4.284;2023-05-20T07:29:26;19.20;99.90
18998;DHT22;9632;51.018;4.284;2023-05-20T07:31:52;19.30;99.90
18998;DHT22;9632;51.018;4.284;2023-05-20T07:34:18;19.40;99.90
18998;DHT22;9632;51.018;4.284;2023-05-20T07:36:44;19.50;99.90
18998;DHT22;9632;51.018;4.284;2023-05-20T07:39:10;19.60;99.90
18998;DHT22;9632;51.018;4.284;2023-05-20T07:41:38;19.70;99.90
18998;DHT22;9632;51.018;4.284;2023-05-20T07:44:05;19.70;99.90
18998;DHT22;9632;51.018;4.284;2023-05-20T07:46:33;19.70;99.90
18998;DHT22;9632;51.018;4.284;2023-05-20T07:48:59;19.70;99.90
18998;DHT22;9632;51.018;4.284;2023-05-20T07:51:25;19.80;99.90
18998;DHT22;9632;51.018;4.284;2023-05-20T07:53:51;19.80;99.90
18998;DHT22;9632;51.018;4.284;2023-05-20T07:56:17;19.90;99.90
18998;DHT22;9632;51.018;4.284;2023-05-20T07:58:50;19.90;99.90
18998;DHT22;9632;51.018;4.284;2023-05-20T08:01:16;19.90;99.90
18998;DHT22;9632;51.018;4.284;2023-05-20T08:03:41;20.00;99.90
18998;DHT22;9632;51.018;4.284;2023-05-20T08:06:07;20.20;99.90
18998;DHT22;9632;51.018;4.284;2023-05-20T08:08:33;20.20;99.90
18998;DHT22;9632;51.018;4.284;2023-05-20T08:10:59;20.20;99.90
18998;DHT22;9632;51.018;4.284;2023-05-20T08:13:26;20.20;99.90
18998;DHT22;9632;51.018;4.284;2023-05-20T08:15:53;20.20;99.90
18998;DHT22;9632;51.018;4.284;2023-05-20T08:18:19;20.30;99.90
18998;DHT22;9632;51.018;4.284;2023-05-20T08:20:44;20.40;99.90
18998;DHT22;9632;51.018;4.284;2023-05-20T08:23:10;20.40;99.90
18998;DHT22;9632;51.018;4.284;2023-05-20T08:25:36;20.50;99.90
18998;DHT22;9632;51.018;4.284;2023-05-20T08:28:03;20.50;99.90
18998;DHT22;9632;51.018;4.284;2023-05-20T08:30:30;20.50;99.90
18998;DHT22;9632;51.018;4.284;2023-05-20T08:32:56;20.60;99.90
18998;DHT22;9632;51.018;4.284;2023-05-20T08:35:22;20.60;99.90
18998;DHT22;9632;51.018;4.284;2023-05-20T08:37:48;20.50;99.90
18998;DHT22;9632;51.018;4.284;2023-05-20T08:40:14;20.60;99.90
18998;DHT22;9632;51.018;4.284;2023-05-20T08:42:42;20.60;99.90
18998;DHT22;9632;51.018;4.284;2023-05-20T08:45:10;20.60;99.90
18998;DHT22;9632;51.018;4.284;2023-05-20T08:47:40;20.70;99.90
18998;DHT22;9632;51.018;4.284;2023-05-20T08:50:08;20.80;99.90
18998;DHT22;9632;51.018;4.284;2023-05-20T08:52:34;20.90;99.90
18998;DHT22;9632;51.018;4.284;2023-05-20T08:55:01;21.00;99.90
18998;DHT22;9632;51.018;4.284;2023-05-20T08:57:29;21.00;99.90
18998;DHT22;9632;51.018;4.284;2023-05-20T08:59:54;20.90;99.90
18998;DHT22;9632;51.018;4.284;2023-05-20T09:02:21;21.00;99.90
18998;DHT22;9632;51.018;4.284;2023-05-20T09:04:47;21.00;99.90
18998;DHT22;9632;51.018;4.284;2023-05-20T09:07:13;21.00;99.90
18998;DHT22;9632;51.018;4.284;2023-05-20T09:09:38;20.90;99.90
18998;DHT22;9632;51.018;4.284;2023-05-20T09:12:05;20.90;99.90
18998;DHT22;9632;51.018;4.284;2023-05-20T09:14:31;21.00;99.90
18998;DHT22;9632;51.018;4.284;2023-05-20T09:16:57;21.00;99.90
18998;DHT22;9632;51.018;4.284;2023-05-20T09:19:23;21.00;99.90
18998;DHT22;9632;51.018;4.284;2023-05-20T09:21:52;21.10;99.90
18998;DHT22;9632;51.018;4.284;2023-05-20T09:24:25;21.10;99.90
18998;DHT22;9632;51.018;4.284;2023-05-20T09:26:51;21.20;99.90
18998;DHT22;9632;51.018;4.284;2023-05-20T09:29:17;21.30;99.90
18998;DHT22;9632;51.018;4.284;2023-05-20T09:31:46;21.40;99.90
18998;DHT22;9632;51.018;4.284;2023-05-20T09:34:11;21.40;99.90
18998;DHT22;9632;51.018;4.284;2023-05-20T09:36:38;21.40;99.90
18998;DHT22;9632;51.018;4.284;2023-05-20T09:39:06;21.40;99.90
18998;DHT22;9632;51.018;4.284;2023-05-20T09:42:06;21.40;99.90
18998;DHT22;9632;51.018;4.284;2023-05-20T09:44:34;21.30;99.90
18998;DHT22;9632;51.018;4.284;2023-05-20T09:47:00;21.20;99.90
18998;DHT22;9632;51.018;4.284;2023-05-20T09:49:27;21.10;99.90
18998;DHT22;9632;51.018;4.284;2023-05-20T09:51:54;21.10;99.90
18998;DHT22;9632;51.018;4.284;2023-05-20T09:54:22;21.20;99.90
18998;DHT22;9632;51.018;4.284;2023-05-20T09:56:49;21.20;99.90
18998;DHT22;9632;51.018;4.284;2023-05-20T09:59:16;21.20;99.90
18998;DHT22;9632;51.018;4.284;2023-05-20T10:01:43;21.20;99.90
18998;DHT22;9632;51.018;4.284;2023-05-20T10:04:11;21.20;99.90
18998;DHT22;9632;51.018;4.284;2023-05-20T10:13:01;21.40;99.90
18998;DHT22;9632;51.018;4.284;2023-05-20T10:15:44;21.50;99.90
18998;DHT22;9632;51.018;4.284;2023-05-20T10:18:54;21.40;99.90
18998;DHT22;9632;51.018;4.284;2023-05-20T10:21:23;21.50;99.90
18998;DHT22;9632;51.018;4.284;2023-05-20T10:23:52;21.70;99.90
18998;DHT22;9632;51.018;4.284;2023-05-20T10:26:18;21.90;99.90
18998;DHT22;9632;51.018;4.284;2023-05-20T10:28:45;22.00;99.90
18998;DHT22;9632;51.018;4.284;2023-05-20T10:31:20;22.00;99.90
18998;DHT22;9632;51.018;4.284;2023-05-20T10:33:47;22.10;99.90
18998;DHT22;9632;51.018;4.284;2023-05-20T10:36:23;22.10;99.90
18998;DHT22;9632;51.018;4.284;2023-05-20T10:38:53;22.10;99.90
18998;DHT22;9632;51.018;4.284;2023-05-20T10:41:27;22.20;99.90
18998;DHT22;9632;51.018;4.284;2023-05-20T10:44:04;22.10;99.90
18998;DHT22;9632;51.018;4.284;2023-05-20T10:46:32;22.10;99.90
18998;DHT22;9632;51.018;4.284;2023-05-20T10:48:58;22.00;99.90
18998;DHT22;9632;51.018;4.284;2023-05-20T10:51:24;22.00;99.90
18998;DHT22;9632;51.018;4.284;2023-05-20T10:53:54;22.00;99.90
18998;DHT22;9632;51.018;4.284;2023-05-20T10:56:23;22.00;99.90
18998;DHT22;9632;51.018;4.284;2023-05-20T10:58:50;22.00;99.90
18998;DHT22;9632;51.018;4.284;2023-05-20T11:01:16;22.00;99.90
18998;DHT22;9632;51.018;4.284;2023-05-20T11:03:44;22.00;99.90
18998;DHT22;9632;51.018;4.284;2023-05-20T11:06:15;22.10;99.90
18998;DHT22;9632;51.018;4.284;2023-05-20T11:08:42;22.10;99.90
18998;DHT22;9632;51.018;4.284;2023-05-20T11:11:09;22.00;99.90
18998;DHT22;9632;51.018;4.284;2023-05-20T11:13:35;22.10;99.90
18998;DHT22;9632;51.018;4.284;2023-05-20T11:16:01;22.10;99.90
18998;DHT22;9632;51.018;4.284;2023-05-20T11:18:29;22.20;99.90
18998;DHT22;9632;51.018;4.284;2023-05-20T11:20:55;22.20;99.90
18998;DHT22;9632;51.018;4.284;2023-05-20T11:23:21;22.30;99.90
18998;DHT22;9632;51.018;4.284;2023-05-20T11:25:51;22.30;99.90
18998;DHT22;9632;51.018;4.284;2023-05-20T11:28:18;22.40;99.90
18998;DHT22;9632;51.018;4.284;2023-05-20T11:30:46;22.50;99.90
18998;DHT22;9632;51.018;4.284;2023-05-20T11:33:13;22.60;99.90
18998;DHT22;9632;51.018;4.284;2023-05-20T11:35:51;22.70;99.90
18998;DHT22;9632;51.018;4.284;2023-05-20T11:38:17;22.60;99.90
18998;DHT22;9632;51.018;4.284;2023-05-20T11:40:54;22.60;99.90
18998;DHT22;9632;51.018;4.284;2023-05-20T11:43:21;22.60;99.90
18998;DHT22;9632;51.018;4.284;2023-05-20T11:45:53;22.60;99.90
18998;DHT22;9632;51.018;4.284;2023-05-20T11:48:19;22.60;99.90
18998;DHT22;9632;51.018;4.284;2023-05-20T11:50:45;22.60;99.90
18998;DHT22;9632;51.018;4.284;2023-05-20T11:53:17;22.70;99.90
18998;DHT22;9632;51.018;4.284;2023-05-20T11:55:58;22.80;99.90
18998;DHT22;9632;51.018;4.284;2023-05-20T11:58:25;22.90;99.90
18998;DHT22;9632;51.018;4.284;2023-05-20T12:00:52;22.80;99.90
18998;DHT22;9632;51.018;4.284;2023-05-20T12:03:18;22.80;99.90
18998;DHT22;9632;51.018;4.284;2023-05-20T12:05:43;22.80;99.90
18998;DHT22;9632;51.018;4.284;2023-05-20T12:08:11;22.70;99.90
18998;DHT22;9632;51.018;4.284;2023-05-20T12:10:37;22.80;99.90
18998;DHT22;9632;51.018;4.284;2023-05-20T12:13:03;22.80;99.90
18998;DHT22;9632;51.018;4.284;2023-05-20T12:15:33;23.00;99.90
18998;DHT22;9632;51.018;4.284;2023-05-20T12:17:59;23.10;99.90
18998;DHT22;9632;51.018;4.284;2023-05-20T12:20:25;23.10;99.90
18998;DHT22;9632;51.018;4.284;2023-05-20T12:22:51;23.10;99.90
18998;DHT22;9632;51.018;4.284;2023-05-20T12:25:18;23.10;99.90
18998;DHT22;9632;51.018;4.284;2023-05-20T12:27:44;23.20;99.90
18998;DHT22;9632;51.018;4.284;2023-05-20T12:30:17;23.20;99.90
18998;DHT22;9632;51.018;4.284;2023-05-20T12:32:44;23.30;99.90
18998;DHT22;9632;51.018;4.284;2023-05-20T12:35:10;23.20;99.90
18998;DHT22;9632;51.018;4.284;2023-05-20T12:37:38;23.20;99.90
18998;DHT22;9632;51.018;4.284;2023-05-20T12:40:05;23.10;99.90
18998;DHT22;9632;51.018;4.284;2023-05-20T12:42:37;23.10;99.90
18998;DHT22;9632;51.018;4.284;2023-05-20T12:45:04;23.00;99.90
18998;DHT22;9632;51.018;4.284;2023-05-20T12:47:33;23.00;99.90
18998;DHT22;9632;51.018;4.284;2023-05-20T12:50:00;23.10;99.90
18998;DHT22;9632;51.018;4.284;2023-05-20T12:52:26;23.10;99.90
18998;DHT22;9632;51.018;4.284;2023-05-20T12:54:55;23.10;99.90
18998;DHT22;9632;51.018;4.284;2023-05-20T12:57:24;23.10;99.90
18998;DHT22;9632;51.018;4.284;2023-05-20T12:59:50;23.10;99.90
18998;DHT22;9632;51.018;4.284;2023-05-20T13:02:15;23.00;99.90
18998;DHT22;9632;51.018;4.284;2023-05-20T13:04:41;23.10;99.90
18998;DHT22;9632;51.018;4.284;2023-05-20T13:07:07;23.10;99.90
18998;DHT22;9632;51.018;4.284;2023-05-20T13:09:32;23.00;99.90
18998;DHT22;9632;51.018;4.284;2023-05-20T13:11:59;23.00;99.90
18998;DHT22;9632;51.018;4.284;2023-05-20T13:14:25;22.90;99.90
18998;DHT22;9632;51.018;4.284;2023-05-20T13:16:51;22.90;99.90
18998;DHT22;9632;51.018;4.284;2023-05-20T13:19:20;23.00;99.90
18998;DHT22;9632;51.018;4.284;2023-05-20T13:21:47;23.00;99.90
18998;DHT22;9632;51.018;4.284;2023-05-20T13:24:12;23.00;99.90
18998;DHT22;9632;51.018;4.284;2023-05-20T13:26:38;23.10;99.90
18998;DHT22;9632;51.018;4.284;2023-05-20T13:29:04;23.20;99.90
18998;DHT22;9632;51.018;4.284;2023-05-20T13:31:33;23.10;99.90
18998;DHT22;9632;51.018;4.284;2023-05-20T13:33:58;23.00;99.90
18998;DHT22;9632;51.018;4.284;2023-05-20T13:36:25;23.00;99.90
18998;DHT22;9632;51.018;4.284;2023-05-20T13:38:51;22.90;99.90
18998;DHT22;9632;51.018;4.284;2023-05-20T13:41:17;22.90;99.90
18998;DHT22;9632;51.018;4.284;2023-05-20T13:43:43;22.90;99.90
18998;DHT22;9632;51.018;4.284;2023-05-20T13:46:08;22.90;99.90
18998;DHT22;9632;51.018;4.284;2023-05-20T13:48:34;22.90;99.90
18998;DHT22;9632;51.018;4.284;2023-05-20T13:50:59;22.90;99.90
18998;DHT22;9632;51.018;4.284;2023-05-20T13:53:26;22.80;99.90
18998;DHT22;9632;51.018;4.284;2023-05-20T13:55:52;22.80;99.90
18998;DHT22;9632;51.018;4.284;2023-05-20T13:58:18;22.80;99.90
18998;DHT22;9632;51.018;4.284;2023-05-20T14:00:44;22.70;99.90
18998;DHT22;9632;51.018;4.284;2023-05-20T14:03:09;22.70;99.90
18998;DHT22;9632;51.018;4.284;2023-05-20T14:05:36;22.80;99.90
18998;DHT22;9632;51.018;4.284;2023-05-20T14:08:01;22.80;99.90
18998;DHT22;9632;51.018;4.284;2023-05-20T14:10:27;22.90;99.90
18998;DHT22;9632;51.018;4.284;2023-05-20T14:12:54;22.90;99.90
18998;DHT22;9632;51.018;4.284;2023-05-20T14:15:19;22.80;99.90
18998;DHT22;9632;51.018;4.284;2023-05-20T14:17:46;22.80;99.90
18998;DHT22;9632;51.018;4.284;2023-05-20T14:20:12;22.80;99.90
18998;DHT22;9632;51.018;4.284;2023-05-20T14:22:38;22.80;99.90
18998;DHT22;9632;51.018;4.284;2023-05-20T14:25:04;22.70;99.90
18998;DHT22;9632;51.018;4.284;2023-05-20T14:27:29;22.70;99.90
18998;DHT22;9632;51.018;4.284;2023-05-20T14:29:55;22.60;99.90
18998;DHT22;9632;51.018;4.284;2023-05-20T14:32:21;22.60;99.90
18998;DHT22;9632;51.018;4.284;2023-05-20T14:34:46;22.60;99.90
18998;DHT22;9632;51.018;4.284;2023-05-20T14:37:12;22.60;99.90
18998;DHT22;9632;51.018;4.284;2023-05-20T14:39:39;22.70;99.90
18998;DHT22;9632;51.018;4.284;2023-05-20T14:42:05;22.80;99.90
18998;DHT22;9632;51.018;4.284;2023-05-20T14:44:31;22.80;99.90
18998;DHT22;9632;51.018;4.284;2023-05-20T14:46:56;22.80;99.90
18998;DHT22;9632;51.018;4.284;2023-05-20T14:49:22;22.70;99.90
18998;DHT22;9632;51.018;4.284;2023-05-20T14:51:48;22.70;99.90
18998;DHT22;9632;51.018;4.284;2023-05-20T14:54:14;22.70;99.90
18998;DHT22;9632;51.018;4.284;2023-05-20T14:56:41;22.70;99.90
18998;DHT22;9632;51.018;4.284;2023-05-20T14:59:07;22.70;99.90
18998;DHT22;9632;51.018;4.284;2023-05-20T15:01:34;22.60;99.90
18998;DHT22;9632;51.018;4.284;2023-05-20T15:04:00;22.70;99.90
18998;DHT22;9632;51.018;4.284;2023-05-20T15:06:26;22.70;99.90
18998;DHT22;9632;51.018;4.284;2023-05-20T15:08:51;22.80;99.90
18998;DHT22;9632;51.018;4.284;2023-05-20T15:11:17;22.80;99.90
18998;DHT22;9632;51.018;4.284;2023-05-20T15:13:43;22.90;99.90
18998;DHT22;9632;51.018;4.284;2023-05-20T15:16:11;22.90;99.90
18998;DHT22;9632;51.018;4.284;2023-05-20T15:18:38;22.90;99.90
18998;DHT22;9632;51.018;4.284;2023-05-20T15:21:04;22.90;99.90
18998;DHT22;9632;51.018;4.284;2023-05-20T15:23:29;22.80;99.90
18998;DHT22;9632;51.018;4.284;2023-05-20T15:25:55;22.80;99.90
18998;DHT22;9632;51.018;4.284;2023-05-20T15:28:23;22.90;99.90
18998;DHT22;9632;51.018;4.284;2023-05-20T15:30:54;22.90;99.90
18998;DHT22;9632;51.018;4.284;2023-05-20T15:33:19;22.90;99.90
18998;DHT22;9632;51.018;4.284;2023-05-20T15:35:46;22.90;99.90
18998;DHT22;9632;51.018;4.284;2023-05-20T15:38:12;22.90;99.90
18998;DHT22;9632;51.018;4.284;2023-05-20T15:40:38;22.90;99.90
18998;DHT22;9632;51.018;4.284;2023-05-20T15:43:04;22.90;99.90
18998;DHT22;9632;51.018;4.284;2023-05-20T15:45:31;22.90;99.90
18998;DHT22;9632;51.018;4.284;2023-05-20T15:47:57;22.90;99.90